createdAt,value
2023-05-21T00:00:41.720Z,1.84
2023-05-21T00:03:08.202Z,1.92
2023-05-21T00:05:37.338Z,1.82
2023-05-21T00:08:04.412Z,2.00
2023-05-21T00:10:30.801Z,1.85
2023-05-21T00:12:57.235Z,1.90
2023-05-21T00:15:23.679Z,1.80
2023-05-21T00:17:50.136Z,1.55
2023-05-21T00:20:16.577Z,1.85
2023-05-21T00:22:43.033Z,1.78
2023-05-21T00:25:09.558Z,1.78
2023-05-21T00:27:36.087Z,1.90
2023-05-21T00:30:02.502Z,2.15
2023-05-21T00:32:28.982Z,1.82
2023-05-21T00:34:55.414Z,1.86
2023-05-21T00:37:22.305Z,1.79
2023-05-21T00:39:49.033Z,1.82
2023-05-21T00:42:15.954Z,1.83
2023-05-21T00:44:42.949Z,1.90
2023-05-21T00:47:09.918Z,1.83
2023-05-21T00:49:36.469Z,1.89
2023-05-21T00:52:03.927Z,1.73
2023-05-21T00:54:31.363Z,1.74
2023-05-21T00:56:57.934Z,1.78
2023-05-21T00:59:24.539Z,1.68
2023-05-21T01:01:51.928Z,1.82
2023-05-21T01:04:19.326Z,1.82
2023-05-21T01:06:45.927Z,1.86
2023-05-21T01:09:12.904Z,1.86
2023-05-21T01:11:39.907Z,1.72
2023-05-21T01:14:06.321Z,1.74
2023-05-21T01:16:32.766Z,1.84
2023-05-21T01:18:59.238Z,1.84
2023-05-21T01:21:25.707Z,1.92
2023-05-21T01:23:52.136Z,1.97
2023-05-21T01:26:18.583Z,1.85
2023-05-21T01:28:44.990Z,1.80
2023-05-21T01:31:11.441Z,1.68
2023-05-21T01:33:38.041Z,1.74
2023-05-21T01:36:04.616Z,1.95
2023-05-21T01:38:31.075Z,1.81
2023-05-21T01:40:57.528Z,1.63
2023-05-21T01:43:23.962Z,1.70
2023-05-21T01:45:50.373Z,1.83
2023-05-21T01:48:16.806Z,1.79
2023-05-21T01:50:43.204Z,1.81
2023-05-21T01:53:09.677Z,1.92
2023-05-21T01:55:38.978Z,1.85
2023-05-21T01:58:05.913Z,1.85
2023-05-21T02:00:32.909Z,1.63
2023-05-21T02:03:00.373Z,1.80
2023-05-21T02:05:27.012Z,1.68
2023-05-21T02:07:53.576Z,1.72
2023-05-21T02:10:21.009Z,1.81
2023-05-21T02:12:48.485Z,1.75
2023-05-21T02:15:15.029Z,1.83
2023-05-21T02:17:42.644Z,1.79
2023-05-21T02:20:10.197Z,1.71
2023-05-21T02:22:36.774Z,1.75
2023-05-21T02:25:04.234Z,1.60
2023-05-21T02:27:30.906Z,1.64
2023-05-21T02:29:57.458Z,1.57
2023-05-21T02:32:24.968Z,1.63
2023-05-21T02:34:52.414Z,1.65
2023-05-21T02:37:18.973Z,1.68
2023-05-21T02:39:46.397Z,1.64
2023-05-21T02:42:13.916Z,1.64
2023-05-21T02:44:40.493Z,1.70
2023-05-21T02:47:07.888Z,1.90
2023-05-21T02:49:34.916Z,1.75
2023-05-21T02:52:01.406Z,1.66
2023-05-21T02:54:28.934Z,1.57
2023-05-21T02:56:55.531Z,1.56
2023-05-21T02:59:22.975Z,1.63
2023-05-21T03:01:49.579Z,1.72
2023-05-21T03:04:16.194Z,1.73
2023-05-21T03:06:43.641Z,1.64
2023-05-21T03:09:11.107Z,1.69
2023-05-21T03:11:37.859Z,1.74
2023-05-21T03:14:04.435Z,1.61
2023-05-21T03:16:31.910Z,1.54
2023-05-21T03:18:59.433Z,1.66
2023-05-21T03:21:26.892Z,1.64
2023-05-21T03:23:53.893Z,1.54
2023-05-21T03:26:20.854Z,1.62
2023-05-21T03:28:47.871Z,1.82
2023-05-21T03:31:14.303Z,1.64
2023-05-21T03:33:40.704Z,1.71
2023-05-21T03:36:07.151Z,1.71
2023-05-21T03:38:34.926Z,1.55
2023-05-21T03:41:02.870Z,1.46
2023-05-21T03:43:29.330Z,1.55
2023-05-21T03:45:55.765Z,1.58
2023-05-21T03:48:22.157Z,1.62
2023-05-21T03:50:48.601Z,1.56
2023-05-21T03:53:15.003Z,1.69
2023-05-21T03:55:41.432Z,1.63
2023-05-21T03:58:07.868Z,1.69
2023-05-21T04:00:34.388Z,1.59
2023-05-21T04:03:00.909Z,1.59
2023-05-21T04:05:27.410Z,1.61
2023-05-21T04:07:53.838Z,1.47
2023-05-21T04:10:20.399Z,1.60
2023-05-21T04:12:46.814Z,1.50
2023-05-21T04:15:13.276Z,1.56
2023-05-21T04:17:39.706Z,1.77
2023-05-21T04:20:09.021Z,1.56
2023-05-21T04:22:35.502Z,1.71
2023-05-21T04:25:01.903Z,1.65
2023-05-21T04:27:28.320Z,1.57
2023-05-21T04:29:55.010Z,1.62
2023-05-21T04:32:21.437Z,1.46
2023-05-21T04:34:47.871Z,1.56
2023-05-21T04:37:14.306Z,1.51
2023-05-21T04:39:40.706Z,1.58
2023-05-21T04:42:07.098Z,1.66
2023-05-21T04:44:33.552Z,1.57
2023-05-21T04:47:00.019Z,1.65
2023-05-21T04:49:26.548Z,1.71
2023-05-21T04:51:53.011Z,1.55
2023-05-21T04:54:19.469Z,1.50
2023-05-21T04:56:45.842Z,1.58
2023-05-21T04:59:12.257Z,1.38
2023-05-21T05:01:38.748Z,1.50
2023-05-21T05:04:05.201Z,1.42
2023-05-21T05:06:31.681Z,1.38
2023-05-21T05:08:58.077Z,1.52
2023-05-21T05:11:24.486Z,1.53
2023-05-21T05:13:50.915Z,1.60
2023-05-21T05:16:17.372Z,1.46
2023-05-21T05:18:46.885Z,1.59
2023-05-21T05:21:13.299Z,1.50
2023-05-21T05:23:39.707Z,1.52
2023-05-21T05:26:06.177Z,1.60
2023-05-21T05:28:32.612Z,1.57
2023-05-21T05:30:59.054Z,1.50
2023-05-21T05:33:25.517Z,1.55
2023-05-21T05:35:52.100Z,1.55
2023-05-21T05:38:18.488Z,1.40
2023-05-21T05:40:44.922Z,1.45
2023-05-21T05:43:11.504Z,1.43
2023-05-21T05:45:38.225Z,1.43
2023-05-21T05:48:05.079Z,1.34
2023-05-21T05:50:31.572Z,1.56
2023-05-21T05:52:57.968Z,1.48
2023-05-21T05:55:24.400Z,1.42
2023-05-21T05:57:50.818Z,1.40
2023-05-21T06:00:17.238Z,1.56
2023-05-21T06:02:43.736Z,1.52
2023-05-21T06:05:10.136Z,1.39
2023-05-21T06:07:36.600Z,1.44
2023-05-21T06:10:03.015Z,1.45
2023-05-21T06:12:29.434Z,1.33
2023-05-21T06:14:55.937Z,1.36
2023-05-21T06:17:22.394Z,1.24
2023-05-21T06:19:48.844Z,1.38
2023-05-21T06:22:15.258Z,1.45
2023-05-21T06:24:41.718Z,1.51
2023-05-21T06:27:08.164Z,1.61
2023-05-21T06:29:35.596Z,1.93
2023-05-21T06:32:02.764Z,1.63
2023-05-21T06:34:29.763Z,1.77
2023-05-21T06:36:56.786Z,1.75
2023-05-21T06:39:24.256Z,1.93
2023-05-21T06:41:50.831Z,2.03
2023-05-21T06:44:20.340Z,2.05
2023-05-21T06:46:47.757Z,1.98
2023-05-21T06:49:14.753Z,2.11
2023-05-21T06:51:41.234Z,2.12
2023-05-21T06:54:07.782Z,2.13
2023-05-21T06:56:34.750Z,2.22
2023-05-21T06:59:02.226Z,2.36
2023-05-21T07:01:28.869Z,2.25
2023-05-21T07:03:55.433Z,2.38
2023-05-21T07:06:21.904Z,2.32
2023-05-21T07:08:51.140Z,2.30
2023-05-21T07:11:17.574Z,2.30
2023-05-21T07:13:44.003Z,2.44
2023-05-21T07:16:10.571Z,2.51
2023-05-21T07:18:37.041Z,2.47
2023-05-21T07:21:03.469Z,2.57
2023-05-21T07:23:29.849Z,2.60
2023-05-21T07:25:56.281Z,2.69
2023-05-21T07:28:22.702Z,2.74
2023-05-21T07:30:49.310Z,2.58
2023-05-21T07:33:15.824Z,2.55
2023-05-21T07:35:42.328Z,2.77
2023-05-21T07:38:08.886Z,2.81
2023-05-21T07:40:35.351Z,2.84
2023-05-21T07:43:01.761Z,3.01
2023-05-21T07:45:28.220Z,2.82
2023-05-21T07:47:54.690Z,2.92
2023-05-21T07:50:21.140Z,2.94
2023-05-21T07:52:47.583Z,2.75
2023-05-21T07:55:14.071Z,2.76
2023-05-21T07:57:40.497Z,2.71
2023-05-21T08:00:06.896Z,3.12
2023-05-21T08:02:33.431Z,2.96
2023-05-21T08:04:59.943Z,3.10
2023-05-21T08:07:26.352Z,3.05
2023-05-21T08:09:52.780Z,3.05
2023-05-21T08:12:19.183Z,3.03
2023-05-21T08:14:45.665Z,2.87
2023-05-21T08:17:12.120Z,2.73
2023-05-21T08:19:38.626Z,3.13
2023-05-21T08:22:05.273Z,3.19
2023-05-21T08:24:32.867Z,3.30
2023-05-21T08:26:59.246Z,3.11
2023-05-21T08:29:25.665Z,3.27
2023-05-21T08:31:52.180Z,2.77
2023-05-21T08:34:18.661Z,3.02
2023-05-21T08:36:45.091Z,3.26
2023-05-21T08:39:11.713Z,3.06
2023-05-21T08:41:38.679Z,3.17
2023-05-21T08:44:05.708Z,3.48
2023-05-21T08:46:32.715Z,3.30
2023-05-21T08:48:59.192Z,3.33
2023-05-21T08:51:25.600Z,3.32
2023-05-21T08:53:52.054Z,3.38
2023-05-21T08:56:18.480Z,3.21
2023-05-21T08:58:44.868Z,3.41
2023-05-21T09:01:11.378Z,3.42
2023-05-21T09:03:37.856Z,3.37
2023-05-21T09:06:04.300Z,3.45
2023-05-21T09:08:30.769Z,3.37
2023-05-21T09:10:57.187Z,3.45
2023-05-21T09:13:23.604Z,3.58
2023-05-21T09:15:50.032Z,3.45
2023-05-21T09:18:16.440Z,3.26
2023-05-21T09:20:42.856Z,3.38
2023-05-21T09:23:09.401Z,3.57
2023-05-21T09:25:35.910Z,3.45
2023-05-21T09:28:02.430Z,3.22
2023-05-21T09:30:30.164Z,3.46
2023-05-21T09:32:58.312Z,3.50
2023-05-21T09:35:24.903Z,3.59
2023-05-21T09:37:51.428Z,3.32
2023-05-21T09:40:17.830Z,3.32
2023-05-21T09:42:44.218Z,3.30
2023-05-21T09:45:10.683Z,3.44
2023-05-21T09:47:37.106Z,3.39
2023-05-21T09:50:03.659Z,3.66
2023-05-21T09:52:30.093Z,3.65
2023-05-21T09:54:56.503Z,3.51
2023-05-21T09:57:22.956Z,3.64
2023-05-21T09:59:49.380Z,3.62
2023-05-21T10:02:15.981Z,3.45
2023-05-21T10:04:42.751Z,3.65
2023-05-21T10:07:09.314Z,3.51
2023-05-21T10:09:35.728Z,3.57
2023-05-21T10:12:02.131Z,3.53
2023-05-21T10:14:28.563Z,3.50
2023-05-21T10:16:54.973Z,3.68
2023-05-21T10:19:21.477Z,3.72
2023-05-21T10:21:47.897Z,3.89
2023-05-21T10:24:14.321Z,3.83
2023-05-21T10:26:40.773Z,3.95
2023-05-21T10:29:07.287Z,3.77
2023-05-21T10:31:36.672Z,3.60
2023-05-21T10:34:03.162Z,3.82
2023-05-21T10:36:29.572Z,3.70
2023-05-21T10:38:55.993Z,3.89
2023-05-21T10:41:22.442Z,3.98
2023-05-21T10:43:48.853Z,3.93
2023-05-21T10:46:15.285Z,3.70
2023-05-21T10:48:41.760Z,3.87
2023-05-21T10:51:08.164Z,3.65
2023-05-21T10:53:34.611Z,3.58
2023-05-21T10:56:01.028Z,3.63
2023-05-21T10:58:29.906Z,3.42
2023-05-21T11:00:56.639Z,3.58
2023-05-21T11:03:23.252Z,3.39
2023-05-21T11:05:49.889Z,3.34
2023-05-21T11:08:16.401Z,3.64
2023-05-21T11:10:42.831Z,3.66
2023-05-21T11:13:09.378Z,3.16
2023-05-21T11:15:35.769Z,3.26
2023-05-21T11:18:02.266Z,3.34
2023-05-21T11:20:28.755Z,3.28
2023-05-21T11:22:55.150Z,3.36
2023-05-21T11:25:21.607Z,3.33
2023-05-21T11:27:48.181Z,3.24
2023-05-21T11:30:14.615Z,3.18
2023-05-21T11:32:41.215Z,2.98
2023-05-21T11:35:07.678Z,3.08
2023-05-21T11:37:34.102Z,3.00
2023-05-21T11:40:00.558Z,3.10
2023-05-21T11:42:26.943Z,3.20
2023-05-21T11:44:53.334Z,3.19
2023-05-21T11:47:19.873Z,3.04
2023-05-21T11:49:46.561Z,3.12
2023-05-21T11:52:13.028Z,2.95
2023-05-21T11:54:39.585Z,3.15
2023-05-21T11:57:06.997Z,2.92
2023-05-21T11:59:33.604Z,2.99
2023-05-21T12:02:01.060Z,3.00
2023-05-21T12:04:27.621Z,3.04
2023-05-21T12:06:57.043Z,3.04
2023-05-21T12:09:23.518Z,3.09
2023-05-21T12:11:50.606Z,3.04
2023-05-21T12:14:17.618Z,2.88
2023-05-21T12:16:45.194Z,2.82
2023-05-21T12:19:12.636Z,2.75
2023-05-21T12:21:39.219Z,2.78
2023-05-21T12:24:06.636Z,2.82
2023-05-21T12:26:33.221Z,2.82
2023-05-21T12:28:59.727Z,2.79
2023-05-21T12:31:26.136Z,2.97
2023-05-21T12:33:52.520Z,2.82
2023-05-21T12:36:18.975Z,2.80
2023-05-21T12:38:45.368Z,2.94
2023-05-21T12:41:11.853Z,2.93
2023-05-21T12:43:38.302Z,2.77
2023-05-21T12:46:04.734Z,2.84
2023-05-21T12:48:31.181Z,2.91
2023-05-21T12:50:57.648Z,2.85
2023-05-21T12:53:24.102Z,2.85
2023-05-21T12:55:50.512Z,2.78
2023-05-21T12:58:16.957Z,2.58
2023-05-21T13:00:43.355Z,2.53
2023-05-21T13:03:09.934Z,2.95
2023-05-21T13:05:36.421Z,2.79
2023-05-21T13:08:05.845Z,3.20
2023-05-21T13:10:32.246Z,2.89
2023-05-21T13:12:58.707Z,2.93
2023-05-21T13:15:25.168Z,2.95
2023-05-21T13:17:53.048Z,3.05
2023-05-21T13:20:20.842Z,2.90
2023-05-21T13:22:47.484Z,2.95
2023-05-21T13:25:13.936Z,2.93
2023-05-21T13:27:40.377Z,2.84
2023-05-21T13:30:06.839Z,2.87
2023-05-21T13:32:33.315Z,3.08
2023-05-21T13:34:59.885Z,3.00
2023-05-21T13:37:26.274Z,3.09
2023-05-21T13:39:52.683Z,2.70
2023-05-21T13:42:19.128Z,2.97
2023-05-21T13:44:45.547Z,3.15
2023-05-21T13:47:11.974Z,2.88
2023-05-21T13:49:38.416Z,2.71
2023-05-21T13:52:04.911Z,3.04
2023-05-21T13:54:31.353Z,3.09
2023-05-21T13:56:57.778Z,2.98
2023-05-21T13:59:24.182Z,3.02
2023-05-21T14:01:50.650Z,3.12
2023-05-21T14:04:17.070Z,3.03
2023-05-21T14:06:43.485Z,3.04
2023-05-21T14:09:09.893Z,3.06
2023-05-21T14:11:36.313Z,3.09
2023-05-21T14:14:02.746Z,3.17
2023-05-21T14:16:29.201Z,3.06
2023-05-21T14:18:55.656Z,3.08
2023-05-21T14:21:22.078Z,3.13
2023-05-21T14:23:48.493Z,2.99
2023-05-21T14:26:14.897Z,2.81
2023-05-21T14:28:41.345Z,3.05
2023-05-21T14:31:07.812Z,3.22
2023-05-21T14:33:34.262Z,2.98
2023-05-21T14:36:00.682Z,2.93
2023-05-21T14:38:27.084Z,2.95
2023-05-21T14:40:53.489Z,3.26
2023-05-21T14:43:19.928Z,3.16
2023-05-21T14:45:46.359Z,3.07
2023-05-21T14:48:12.765Z,3.21
2023-05-21T14:50:39.176Z,3.10
2023-05-21T14:53:05.590Z,2.87
2023-05-21T14:55:31.991Z,2.92
2023-05-21T14:57:58.435Z,3.05
2023-05-21T15:00:24.967Z,3.00
2023-05-21T15:02:51.467Z,2.95
2023-05-21T15:05:18.008Z,3.20
2023-05-21T15:07:44.509Z,2.92
2023-05-21T15:10:10.929Z,2.98
2023-05-21T15:12:37.349Z,2.89
2023-05-21T15:15:03.767Z,2.93
2023-05-21T15:17:30.224Z,3.24
2023-05-21T15:19:56.780Z,3.11
2023-05-21T15:22:23.163Z,3.04
2023-05-21T15:24:49.790Z,3.16
2023-05-21T15:27:16.260Z,2.99
2023-05-21T15:29:42.662Z,3.09
2023-05-21T15:32:09.081Z,2.95
2023-05-21T15:34:35.600Z,2.97
2023-05-21T15:37:02.075Z,3.06
2023-05-21T15:39:28.465Z,3.07
2023-05-21T15:41:54.907Z,3.18
2023-05-21T15:44:21.360Z,3.13
2023-05-21T15:46:47.860Z,3.14
2023-05-21T15:49:14.314Z,3.13
2023-05-21T15:51:40.737Z,3.14
2023-05-21T15:54:07.149Z,3.22
2023-05-21T15:56:33.589Z,3.26
2023-05-21T15:59:00.038Z,3.40
2023-05-21T16:01:26.500Z,3.21
2023-05-21T16:03:53.017Z,3.09
2023-05-21T16:06:19.424Z,3.35
2023-05-21T16:08:45.830Z,3.17
2023-05-21T16:11:12.276Z,3.11
2023-05-21T16:13:41.392Z,3.13
2023-05-21T16:16:07.797Z,3.34
2023-05-21T16:18:34.240Z,3.29
2023-05-21T16:21:00.654Z,3.16
2023-05-21T16:23:27.073Z,3.23
2023-05-21T16:25:53.517Z,3.27
2023-05-21T16:28:21.037Z,3.35
2023-05-21T16:30:47.537Z,3.27
2023-05-21T16:33:14.013Z,3.00
2023-05-21T16:35:40.482Z,3.14
2023-05-21T16:38:06.955Z,3.00
2023-05-21T16:40:33.406Z,3.20
2023-05-21T16:43:01.911Z,3.23
2023-05-21T16:45:28.695Z,2.97
2023-05-21T16:47:55.209Z,3.29
2023-05-21T16:50:21.666Z,3.06
2023-05-21T16:52:48.071Z,2.96
2023-05-21T16:55:14.516Z,3.04
2023-05-21T16:57:41.036Z,2.89
2023-05-21T17:00:07.491Z,3.17
2023-05-21T17:02:34.210Z,3.31
2023-05-21T17:05:00.701Z,3.07
2023-05-21T17:07:27.126Z,3.25
2023-05-21T17:09:53.607Z,3.27
2023-05-21T17:12:20.152Z,3.17
2023-05-21T17:14:46.566Z,3.19
2023-05-21T17:17:13.010Z,3.19
2023-05-21T17:19:39.433Z,3.48
2023-05-21T17:22:05.829Z,3.42
2023-05-21T17:24:32.291Z,3.01
2023-05-21T17:26:58.744Z,3.15
2023-05-21T17:29:25.143Z,3.32
2023-05-21T17:31:51.654Z,3.14
2023-05-21T17:34:18.104Z,3.13
2023-05-21T17:36:44.504Z,3.20
2023-05-21T17:39:10.962Z,3.20
2023-05-21T17:41:37.363Z,2.88
2023-05-21T17:44:03.782Z,3.02
2023-05-21T17:46:30.262Z,3.03
2023-05-21T17:48:56.665Z,3.15
2023-05-21T17:51:24.102Z,3.06
2023-05-21T17:53:50.559Z,3.01
2023-05-21T17:56:16.961Z,3.16
2023-05-21T17:58:43.366Z,3.07
2023-05-21T18:01:09.842Z,3.07
2023-05-21T18:03:36.407Z,2.95
2023-05-21T18:06:02.820Z,2.99
2023-05-21T18:08:29.323Z,3.28
2023-05-21T18:10:55.752Z,3.14
2023-05-21T18:13:22.284Z,3.17
2023-05-21T18:15:48.726Z,3.06
2023-05-21T18:18:15.123Z,2.89
2023-05-21T18:20:41.579Z,2.98
2023-05-21T18:23:08.060Z,2.85
2023-05-21T18:25:34.474Z,2.78
2023-05-21T18:28:00.940Z,3.07
2023-05-21T18:30:27.395Z,3.08
2023-05-21T18:32:53.819Z,3.16
2023-05-21T18:35:20.442Z,3.12
2023-05-21T18:37:46.908Z,2.94
2023-05-21T18:40:13.379Z,2.94
2023-05-21T18:42:39.843Z,3.29
2023-05-21T18:45:06.413Z,3.04
2023-05-21T18:47:32.865Z,3.22
2023-05-21T18:49:59.327Z,3.22
2023-05-21T18:52:25.736Z,3.06
2023-05-21T18:54:52.155Z,3.06
2023-05-21T18:57:18.607Z,3.16
2023-05-21T18:59:47.790Z,3.26
2023-05-21T19:02:14.305Z,3.39
2023-05-21T19:04:40.747Z,3.24
2023-05-21T19:07:07.135Z,3.20
2023-05-21T19:09:33.577Z,3.33
2023-05-21T19:12:00.246Z,3.07
2023-05-21T19:14:26.709Z,3.07
2023-05-21T19:16:53.163Z,3.13
2023-05-21T19:19:19.594Z,3.33
2023-05-21T19:21:46.061Z,3.23
2023-05-21T19:24:12.478Z,3.13
2023-05-21T19:26:38.879Z,3.38
2023-05-21T19:29:05.306Z,3.29
2023-05-21T19:31:31.797Z,3.44
2023-05-21T19:33:58.317Z,3.14
2023-05-21T19:36:24.751Z,3.44
2023-05-21T19:38:51.203Z,3.04
2023-05-21T19:41:17.658Z,3.26
2023-05-21T19:43:44.057Z,3.12
2023-05-21T19:46:10.604Z,3.22
2023-05-21T19:48:37.050Z,3.29
2023-05-21T19:51:03.466Z,3.30
2023-05-21T19:53:30.292Z,3.32
2023-05-21T19:55:57.746Z,3.12
2023-05-21T19:58:25.156Z,3.34
2023-05-21T20:00:51.914Z,2.93
2023-05-21T20:03:19.380Z,3.10
2023-05-21T20:05:45.899Z,3.23
2023-05-21T20:08:13.309Z,3.07
2023-05-21T20:10:40.865Z,3.07
2023-05-21T20:13:08.261Z,2.92
2023-05-21T20:15:34.789Z,2.92
2023-05-21T20:18:02.328Z,2.93
2023-05-21T20:20:29.326Z,3.02
2023-05-21T20:22:56.292Z,3.15
2023-05-21T20:25:23.718Z,3.01
2023-05-21T20:27:51.141Z,3.07
2023-05-21T20:30:18.279Z,2.95
2023-05-21T20:32:45.289Z,3.03
2023-05-21T20:35:12.279Z,2.77
2023-05-21T20:37:39.279Z,2.87
2023-05-21T20:40:06.309Z,3.11
2023-05-21T20:42:33.774Z,2.99
2023-05-21T20:45:00.338Z,2.92
2023-05-21T20:47:30.089Z,2.72
2023-05-21T20:49:57.258Z,2.79
2023-05-21T20:52:23.859Z,2.90
2023-05-21T20:54:51.283Z,2.87
2023-05-21T20:57:18.699Z,2.78
2023-05-21T20:59:45.273Z,2.79
2023-05-21T21:02:12.680Z,2.98
2023-05-21T21:04:40.102Z,2.85
2023-05-21T21:07:07.252Z,3.34
2023-05-21T21:09:34.225Z,3.02
2023-05-21T21:12:14.350Z,2.58
2023-05-21T21:14:48.215Z,2.92
2023-05-21T21:17:14.635Z,2.86
2023-05-21T21:19:41.143Z,2.89
2023-05-21T21:22:07.588Z,3.00
2023-05-21T21:24:34.051Z,3.04
2023-05-21T21:27:00.512Z,2.68
2023-05-21T21:29:26.953Z,2.60
2023-05-21T21:31:53.405Z,2.77
2023-05-21T21:34:19.828Z,2.93
2023-05-21T21:36:46.253Z,2.92
2023-05-21T21:39:12.701Z,2.90
2023-05-21T21:41:41.901Z,2.68
2023-05-21T21:44:08.407Z,2.89
2023-05-21T21:46:34.827Z,2.94
2023-05-21T21:49:01.216Z,2.95
2023-05-21T21:51:27.697Z,2.96
2023-05-21T21:53:54.191Z,2.64
2023-05-21T21:56:20.575Z,2.65
2023-05-21T21:58:46.976Z,2.57
2023-05-21T22:01:13.447Z,2.94
2023-05-21T22:03:39.834Z,2.60
2023-05-21T22:06:06.204Z,2.50
2023-05-21T22:08:32.699Z,2.66
2023-05-21T22:10:59.159Z,2.78
2023-05-21T22:13:26.544Z,2.72
2023-05-21T22:15:53.840Z,2.75
2023-05-21T22:18:28.325Z,2.72
2023-05-21T22:21:02.772Z,2.50
2023-05-21T22:23:29.185Z,2.63
2023-05-21T22:25:55.593Z,2.90
2023-05-21T22:28:22.019Z,2.46
2023-05-21T22:30:51.520Z,2.45
2023-05-21T22:33:18.020Z,2.54
2023-05-21T22:35:44.911Z,2.78
2023-05-21T22:38:11.301Z,2.62
2023-05-21T22:40:37.860Z,2.45
2023-05-21T22:43:04.503Z,2.63
2023-05-21T22:45:30.972Z,2.46
2023-05-21T22:47:57.409Z,2.33
2023-05-21T22:50:23.873Z,2.60
2023-05-21T22:52:50.307Z,2.49
2023-05-21T22:55:16.709Z,2.49
2023-05-21T22:57:43.156Z,2.57
2023-05-21T23:00:09.766Z,2.41
2023-05-21T23:02:36.297Z,2.45
2023-05-21T23:05:02.808Z,2.58
2023-05-21T23:07:29.231Z,2.45
2023-05-21T23:09:55.832Z,2.44
2023-05-21T23:12:22.257Z,2.50
2023-05-21T23:14:48.664Z,2.59
2023-05-21T23:17:15.067Z,2.59
2023-05-21T23:19:41.494Z,2.28
2023-05-21T23:22:07.925Z,2.40
2023-05-21T23:24:35.342Z,2.36
2023-05-21T23:27:01.980Z,2.60
2023-05-21T23:29:28.625Z,2.51
2023-05-21T23:31:55.107Z,2.54
2023-05-21T23:34:21.555Z,2.39
2023-05-21T23:36:47.957Z,2.26
2023-05-21T23:39:14.395Z,2.32
2023-05-21T23:41:41.041Z,2.25
2023-05-21T23:44:07.458Z,2.19
2023-05-21T23:46:33.918Z,2.14
2023-05-21T23:49:00.379Z,2.30
2023-05-21T23:51:26.777Z,2.19
2023-05-21T23:53:53.185Z,2.52
2023-05-21T23:56:19.626Z,2.34
2023-05-21T23:58:46.033Z,2.35
